createdAt,value
2023-05-15T00:02:10.504Z,46.00
2023-05-15T00:04:38.844Z,42.80
2023-05-15T00:07:08.224Z,39.67
2023-05-15T00:09:36.348Z,43.77
2023-05-15T00:12:04.247Z,41.00
2023-05-15T00:14:31.982Z,42.97
2023-05-15T00:16:59.774Z,40.53
2023-05-15T00:19:27.929Z,40.60
2023-05-15T00:21:55.665Z,44.33
2023-05-15T00:24:25.058Z,39.57
2023-05-15T00:26:53.092Z,38.67
2023-05-15T00:29:20.779Z,46.43
2023-05-15T00:31:48.599Z,41.03
2023-05-15T00:34:16.894Z,39.60
2023-05-15T00:36:45.083Z,43.30
2023-05-15T00:39:12.741Z,39.10
2023-05-15T00:41:42.268Z,45.50
2023-05-15T00:44:10.990Z,42.73
2023-05-15T00:46:39.114Z,53.10
2023-05-15T00:49:13.824Z,45.13
2023-05-15T00:51:41.903Z,46.87
2023-05-15T00:54:10.761Z,39.50
2023-05-15T00:56:40.452Z,45.23
2023-05-15T00:59:11.067Z,43.90
2023-05-15T01:01:39.859Z,44.13
2023-05-15T01:04:07.975Z,46.77
2023-05-15T01:06:36.513Z,46.17
2023-05-15T01:09:04.900Z,41.70
2023-05-15T01:11:36.913Z,45.87
2023-05-15T01:14:06.031Z,44.57
2023-05-15T01:16:35.773Z,48.87
2023-05-15T01:19:05.009Z,44.67
2023-05-15T01:21:57.143Z,45.43
2023-05-15T01:24:37.185Z,47.13
2023-05-15T01:27:18.505Z,47.53
2023-05-15T01:29:49.862Z,47.60
2023-05-15T01:32:24.940Z,45.27
2023-05-15T01:34:55.080Z,46.67
2023-05-15T01:37:25.668Z,42.17
2023-05-15T01:39:56.007Z,43.77
2023-05-15T01:42:27.779Z,47.00
2023-05-15T01:44:56.330Z,41.83
2023-05-15T01:47:28.317Z,46.00
2023-05-15T01:49:56.721Z,44.10
2023-05-15T01:52:27.830Z,42.47
2023-05-15T01:54:56.573Z,43.83
2023-05-15T01:57:26.724Z,40.60
2023-05-15T01:59:55.279Z,42.53
2023-05-15T02:02:24.629Z,45.13
2023-05-15T02:04:56.442Z,44.33
2023-05-15T02:07:25.154Z,44.83
2023-05-15T02:09:53.062Z,42.20
2023-05-15T02:12:21.938Z,41.43
2023-05-15T02:14:51.686Z,45.47
2023-05-15T02:17:20.767Z,43.93
2023-05-15T02:19:50.325Z,43.70
2023-05-15T02:22:18.352Z,44.77
2023-05-15T02:24:46.006Z,43.00
2023-05-15T02:27:18.807Z,51.70
2023-05-15T02:29:52.915Z,43.50
2023-05-15T02:32:28.426Z,42.20
2023-05-15T02:35:04.822Z,41.90
2023-05-15T02:37:34.291Z,47.63
2023-05-15T02:40:06.959Z,45.23
2023-05-15T02:42:35.665Z,48.60
2023-05-15T02:45:03.865Z,43.43
2023-05-15T02:47:33.617Z,45.57
2023-05-15T02:50:01.495Z,45.57
2023-05-15T02:52:29.715Z,50.37
2023-05-15T02:54:57.403Z,43.90
2023-05-15T02:57:25.478Z,53.00
2023-05-15T02:59:53.839Z,44.87
2023-05-15T03:02:21.890Z,42.17
2023-05-15T03:04:51.208Z,44.87
2023-05-15T03:07:19.599Z,47.90
2023-05-15T03:09:47.309Z,43.60
2023-05-15T03:12:15.424Z,42.27
2023-05-15T03:14:43.382Z,43.37
2023-05-15T03:17:11.277Z,40.77
2023-05-15T03:19:39.066Z,40.90
2023-05-15T03:22:08.555Z,40.53
2023-05-15T03:24:36.443Z,42.80
2023-05-15T03:27:04.807Z,39.13
2023-05-15T03:29:32.848Z,45.10
2023-05-15T03:32:00.938Z,40.70
2023-05-15T03:34:28.630Z,39.60
2023-05-15T03:36:56.283Z,40.33
2023-05-15T03:39:26.057Z,42.27
2023-05-15T03:41:53.716Z,41.93
2023-05-15T03:44:23.764Z,43.43
2023-05-15T03:46:51.758Z,44.80
2023-05-15T03:49:19.440Z,42.13
2023-05-15T03:51:47.128Z,44.00
2023-05-15T03:54:15.618Z,41.37
2023-05-15T03:56:46.013Z,43.57
2023-05-15T03:59:13.802Z,45.00
2023-05-15T04:01:54.701Z,41.60
2023-05-15T04:04:29.538Z,42.43
2023-05-15T04:06:57.233Z,42.90
2023-05-15T04:09:25.330Z,46.50
2023-05-15T04:11:54.354Z,38.23
2023-05-15T04:14:22.266Z,41.20
2023-05-15T04:16:50.130Z,48.00
2023-05-15T04:19:18.238Z,44.30
2023-05-15T04:21:46.094Z,41.80
2023-05-15T04:24:13.798Z,39.33
2023-05-15T04:26:41.875Z,42.43
2023-05-15T04:29:11.613Z,53.20
2023-05-15T04:31:39.531Z,47.37
2023-05-15T04:34:07.541Z,54.77
2023-05-15T04:36:35.364Z,43.33
2023-05-15T04:39:03.144Z,48.27
2023-05-15T04:41:33.191Z,46.47
2023-05-15T04:44:01.814Z,45.60
2023-05-15T04:46:34.591Z,44.40
2023-05-15T04:49:02.879Z,44.20
2023-05-15T04:51:30.919Z,44.60
2023-05-15T04:53:58.834Z,42.90
2023-05-15T04:56:27.220Z,72.37
2023-05-15T04:58:55.057Z,47.37
2023-05-15T05:01:22.740Z,153.20
2023-05-15T05:03:52.278Z,45.10
2023-05-15T05:06:20.267Z,45.00
2023-05-15T05:08:47.987Z,48.17
2023-05-15T05:11:15.945Z,46.67
2023-05-15T05:13:43.917Z,53.13
2023-05-15T05:16:11.796Z,44.23
2023-05-15T05:18:39.910Z,53.33
2023-05-15T05:21:09.364Z,49.83
2023-05-15T05:23:37.176Z,44.90
2023-05-15T05:26:06.113Z,38.40
2023-05-15T05:28:34.527Z,38.83
2023-05-15T05:31:03.640Z,36.40
2023-05-15T05:33:31.375Z,36.80
2023-05-15T05:35:59.459Z,39.93
2023-05-15T05:38:28.677Z,36.80
2023-05-15T05:40:56.359Z,39.40
2023-05-15T05:43:26.844Z,37.37
2023-05-15T05:45:54.537Z,38.33
2023-05-15T05:48:22.528Z,34.50
2023-05-15T05:50:51.124Z,38.93
2023-05-15T05:53:18.863Z,33.00
2023-05-15T05:55:48.403Z,35.60
2023-05-15T05:58:24.952Z,34.43
2023-05-15T06:00:54.140Z,34.47
2023-05-15T06:03:22.157Z,37.17
2023-05-15T06:05:50.944Z,37.80
2023-05-15T06:08:19.841Z,33.20
2023-05-15T06:10:49.410Z,41.40
2023-05-15T06:13:17.365Z,37.17
2023-05-15T06:15:46.480Z,34.97
2023-05-15T06:18:14.202Z,35.70
2023-05-15T06:20:42.672Z,41.53
2023-05-15T06:23:10.584Z,39.07
2023-05-15T06:25:38.453Z,42.27
2023-05-15T06:28:07.973Z,39.97
2023-05-15T06:30:35.805Z,40.93
2023-05-15T06:33:03.631Z,38.10
2023-05-15T06:35:31.729Z,39.90
2023-05-15T06:37:59.450Z,49.50
2023-05-15T06:40:27.395Z,41.80
2023-05-15T06:42:55.544Z,43.80
2023-05-15T06:45:24.871Z,37.70
2023-05-15T06:47:52.981Z,40.53
2023-05-15T06:50:20.785Z,36.40
2023-05-15T06:52:48.768Z,34.53
2023-05-15T06:55:16.532Z,36.27
2023-05-15T06:57:44.582Z,33.23
2023-05-15T07:00:13.004Z,37.93
2023-05-15T07:02:43.677Z,33.70
2023-05-15T07:05:12.549Z,32.70
2023-05-15T07:07:40.998Z,33.43
2023-05-15T07:10:09.854Z,37.70
2023-05-15T07:12:37.779Z,34.37
2023-05-15T07:15:06.220Z,33.53
2023-05-15T07:17:34.815Z,34.90
2023-05-15T07:20:07.384Z,32.70
2023-05-15T07:22:41.712Z,39.80
2023-05-15T07:25:17.369Z,42.13
2023-05-15T07:27:45.293Z,38.33
2023-05-15T07:30:14.135Z,38.53
2023-05-15T07:32:42.519Z,38.40
2023-05-15T07:35:12.510Z,44.27
2023-05-15T07:37:43.593Z,43.20
2023-05-15T07:40:11.705Z,33.00
2023-05-15T07:42:40.641Z,42.43
2023-05-15T07:45:08.988Z,34.40
2023-05-15T07:47:37.123Z,37.43
2023-05-15T07:50:05.322Z,38.67
2023-05-15T07:52:35.197Z,34.10
2023-05-15T07:55:03.826Z,31.40
2023-05-15T07:57:31.828Z,51.27
2023-05-15T07:59:59.981Z,41.50
2023-05-15T08:02:27.935Z,37.07
2023-05-15T08:04:55.920Z,35.07
2023-05-15T08:07:23.712Z,33.30
2023-05-15T08:09:55.458Z,32.40
2023-05-15T08:12:23.905Z,38.00
2023-05-15T08:14:52.371Z,34.70
2023-05-15T08:17:21.595Z,35.70
2023-05-15T08:19:49.940Z,32.27
2023-05-15T08:22:18.287Z,33.53
2023-05-15T08:24:46.040Z,32.97
2023-05-15T08:27:15.573Z,33.60
2023-05-15T08:29:43.273Z,34.90
2023-05-15T08:32:11.397Z,33.63
2023-05-15T08:34:40.067Z,32.93
2023-05-15T08:37:07.835Z,34.17
2023-05-15T08:39:35.540Z,28.80
2023-05-15T08:42:06.959Z,39.53
2023-05-15T08:44:36.668Z,29.87
2023-05-15T08:47:05.277Z,30.70
2023-05-15T08:49:37.069Z,37.00
2023-05-15T08:52:05.389Z,32.50
2023-05-15T08:54:33.359Z,32.27
2023-05-15T08:57:01.811Z,35.60
2023-05-15T08:59:29.526Z,29.40
2023-05-15T09:01:59.125Z,35.70
2023-05-15T09:04:27.325Z,31.60
2023-05-15T09:06:55.479Z,42.10
2023-05-15T09:09:24.537Z,28.53
2023-05-15T09:11:53.067Z,33.90
2023-05-15T09:14:21.148Z,28.43
2023-05-15T09:16:50.964Z,38.80
2023-05-15T09:19:22.603Z,40.67
2023-05-15T09:21:50.467Z,29.70
2023-05-15T09:24:19.650Z,29.60
2023-05-15T09:26:47.880Z,28.53
2023-05-15T09:29:19.120Z,33.50
2023-05-15T09:31:48.379Z,30.87
2023-05-15T09:34:16.581Z,28.40
2023-05-15T09:36:45.905Z,34.43
2023-05-15T09:39:13.740Z,27.77
2023-05-15T09:41:42.802Z,27.77
2023-05-15T09:44:21.463Z,27.33
2023-05-15T09:46:50.039Z,29.10
2023-05-15T09:49:18.356Z,32.17
2023-05-15T09:51:50.473Z,31.63
2023-05-15T09:54:18.986Z,28.37
2023-05-15T09:56:47.238Z,33.80
2023-05-15T09:59:16.142Z,29.07
2023-05-15T10:01:45.033Z,30.90
2023-05-15T10:04:13.676Z,31.87
2023-05-15T10:06:43.166Z,27.90
2023-05-15T10:09:12.968Z,26.90
2023-05-15T10:11:41.404Z,31.53
2023-05-15T10:14:10.527Z,29.63
2023-05-15T10:16:38.743Z,33.43
2023-05-15T10:19:07.600Z,28.70
2023-05-15T10:21:36.627Z,30.77
2023-05-15T10:24:05.635Z,34.97
2023-05-15T10:26:37.435Z,31.33
2023-05-15T10:29:06.369Z,32.90
2023-05-15T10:31:34.720Z,34.33
2023-05-15T10:34:04.464Z,29.37
2023-05-15T10:36:33.116Z,31.10
2023-05-15T10:39:01.726Z,31.70
2023-05-15T10:41:30.312Z,28.17
2023-05-15T10:44:01.605Z,34.33
2023-05-15T10:46:30.666Z,28.13
2023-05-15T10:48:58.561Z,34.17
2023-05-15T10:51:27.472Z,27.87
2023-05-15T10:53:56.394Z,43.43
2023-05-15T10:56:27.408Z,30.97
2023-05-15T10:58:56.147Z,30.70
2023-05-15T11:01:28.923Z,35.93
2023-05-15T11:04:06.762Z,33.40
2023-05-15T11:06:34.957Z,31.17
2023-05-15T11:09:21.309Z,30.20
2023-05-15T11:11:56.870Z,34.30
2023-05-15T11:14:26.344Z,33.80
2023-05-15T11:16:58.959Z,32.80
2023-05-15T11:19:32.972Z,35.67
2023-05-15T11:22:01.922Z,38.70
2023-05-15T11:24:30.668Z,39.70
2023-05-15T11:27:01.387Z,35.60
2023-05-15T11:29:29.195Z,43.47
2023-05-15T11:31:56.929Z,38.33
2023-05-15T11:34:32.491Z,36.50
2023-05-15T11:37:00.867Z,29.20
2023-05-15T11:39:28.975Z,28.10
2023-05-15T11:41:59.121Z,34.70
2023-05-15T11:44:28.539Z,32.73
2023-05-15T11:46:56.384Z,26.67
2023-05-15T11:49:26.376Z,23.40
2023-05-15T11:51:56.060Z,28.20
2023-05-15T11:54:25.295Z,31.03
2023-05-15T11:56:58.051Z,22.60
2023-05-15T11:59:27.709Z,26.10
2023-05-15T12:01:55.430Z,25.80
2023-05-15T12:04:24.562Z,22.87
2023-05-15T12:06:52.728Z,21.90
2023-05-15T12:09:27.412Z,24.33
2023-05-15T12:11:56.366Z,23.30
2023-05-15T12:14:30.321Z,23.83
2023-05-15T12:17:02.736Z,21.80
2023-05-15T12:19:33.727Z,23.70
2023-05-15T12:22:01.551Z,23.00
2023-05-15T12:24:30.891Z,21.40
2023-05-15T12:26:59.200Z,21.17
2023-05-15T12:29:27.421Z,23.80
2023-05-15T12:31:55.220Z,22.07
2023-05-15T12:34:23.175Z,26.80
2023-05-15T12:36:50.899Z,22.10
2023-05-15T12:39:18.583Z,22.77
2023-05-15T12:41:49.899Z,24.80
2023-05-15T12:44:18.313Z,21.87
2023-05-15T12:46:46.573Z,20.63
2023-05-15T12:49:14.437Z,24.40
2023-05-15T12:51:45.526Z,20.70
2023-05-15T12:54:17.966Z,25.13
2023-05-15T12:56:47.816Z,20.60
2023-05-15T12:59:15.730Z,18.97
2023-05-15T13:01:43.794Z,28.57
2023-05-15T13:04:11.943Z,21.00
2023-05-15T13:06:46.803Z,19.87
2023-05-15T13:09:15.508Z,22.23
2023-05-15T13:11:45.043Z,21.47
2023-05-15T13:14:17.603Z,20.67
2023-05-15T13:16:46.807Z,27.10
2023-05-15T13:19:15.861Z,21.10
2023-05-15T13:21:43.832Z,23.53
2023-05-15T13:24:11.816Z,20.33
2023-05-15T13:26:39.703Z,21.47
2023-05-15T13:29:07.524Z,25.10
2023-05-15T13:31:37.296Z,21.20
2023-05-15T13:34:05.159Z,23.80
2023-05-15T13:36:33.417Z,29.40
2023-05-15T13:39:01.135Z,28.07
2023-05-15T13:41:29.277Z,32.63
2023-05-15T13:43:56.955Z,30.70
2023-05-15T13:46:24.998Z,40.33
2023-05-15T13:48:54.111Z,40.77
2023-05-15T13:51:22.220Z,35.33
2023-05-15T13:53:49.943Z,24.07
2023-05-15T13:56:17.709Z,26.60
2023-05-15T13:58:45.563Z,26.70
2023-05-15T14:01:14.171Z,28.00
2023-05-15T14:03:41.976Z,29.60
2023-05-15T14:06:11.404Z,24.33
2023-05-15T14:08:39.216Z,27.77
2023-05-15T14:11:06.886Z,29.53
2023-05-15T14:13:35.042Z,28.63
2023-05-15T14:16:03.149Z,30.83
2023-05-15T14:18:32.166Z,27.23
2023-05-15T14:21:00.097Z,25.60
2023-05-15T14:23:31.629Z,28.37
2023-05-15T14:25:59.544Z,29.80
2023-05-15T14:28:27.203Z,28.70
2023-05-15T14:30:55.140Z,28.50
2023-05-15T14:33:23.345Z,29.37
2023-05-15T14:35:51.140Z,27.93
2023-05-15T14:38:18.858Z,32.20
2023-05-15T14:40:48.049Z,29.87
2023-05-15T14:43:15.749Z,34.03
2023-05-15T14:45:43.610Z,30.87
2023-05-15T14:48:11.873Z,35.63
2023-05-15T14:50:39.660Z,26.00
2023-05-15T14:53:07.341Z,29.97
2023-05-15T14:55:35.426Z,26.33
2023-05-15T14:58:04.760Z,26.57
2023-05-15T15:00:33.093Z,25.80
2023-05-15T15:03:02.548Z,26.10
2023-05-15T15:05:30.388Z,30.43
2023-05-15T15:08:00.377Z,24.17
2023-05-15T15:10:28.579Z,23.57
2023-05-15T15:12:56.659Z,25.70
2023-05-15T15:15:26.002Z,22.33
2023-05-15T15:17:54.221Z,21.37
2023-05-15T15:20:22.223Z,21.77
2023-05-15T15:22:50.278Z,29.20
2023-05-15T15:25:18.348Z,22.20
2023-05-15T15:27:46.254Z,20.80
2023-05-15T15:30:14.134Z,21.60
2023-05-15T15:32:44.385Z,22.80
2023-05-15T15:35:12.615Z,23.33
2023-05-15T15:37:40.475Z,22.83
2023-05-15T15:40:09.294Z,21.00
2023-05-15T15:42:36.972Z,20.00
2023-05-15T15:45:05.405Z,20.57
2023-05-15T15:47:33.578Z,20.57
2023-05-15T15:50:03.098Z,21.87
2023-05-15T15:52:31.463Z,23.40
2023-05-15T15:54:59.508Z,21.77
2023-05-15T15:57:28.912Z,22.77
2023-05-15T15:59:56.947Z,25.73
2023-05-15T16:02:25.131Z,23.47
2023-05-15T16:04:53.728Z,27.77
2023-05-15T16:07:23.123Z,23.20
2023-05-15T16:10:00.409Z,26.27
2023-05-15T16:12:38.455Z,21.30
2023-05-15T16:15:20.932Z,24.00
2023-05-15T16:17:51.607Z,23.60
2023-05-15T16:20:19.759Z,22.70
2023-05-15T16:22:49.326Z,22.03
2023-05-15T16:25:17.167Z,26.37
2023-05-15T16:27:45.017Z,24.53
2023-05-15T16:30:14.082Z,29.43
2023-05-15T16:32:42.149Z,26.87
2023-05-15T16:35:10.657Z,25.33
2023-05-15T16:37:38.887Z,26.60
2023-05-15T16:40:09.293Z,30.20
2023-05-15T16:42:37.982Z,28.23
2023-05-15T16:45:06.659Z,25.57
2023-05-15T16:47:35.074Z,25.13
2023-05-15T16:50:03.685Z,23.80
2023-05-15T16:52:31.778Z,24.13
2023-05-15T16:54:59.678Z,24.23
2023-05-15T16:57:29.090Z,22.73
2023-05-15T16:59:57.084Z,25.30
2023-05-15T17:02:25.078Z,23.30
2023-05-15T17:04:53.734Z,23.20
2023-05-15T17:07:21.489Z,23.80
2023-05-15T17:09:49.538Z,22.33
2023-05-15T17:12:19.226Z,22.50
2023-05-15T17:14:48.450Z,22.47
2023-05-15T17:17:16.768Z,22.97
2023-05-15T17:19:45.319Z,24.13
2023-05-15T17:22:13.161Z,23.47
2023-05-15T17:24:50.830Z,25.40
2023-05-15T17:27:20.537Z,24.23
2023-05-15T17:29:49.980Z,22.60
2023-05-15T17:32:18.829Z,23.07
2023-05-15T17:34:47.577Z,24.30
2023-05-15T17:37:15.606Z,26.47
2023-05-15T17:39:43.381Z,21.90
2023-05-15T17:42:11.487Z,22.37
2023-05-15T17:44:39.317Z,25.63
2023-05-15T17:47:10.103Z,23.40
2023-05-15T17:49:38.533Z,24.20
2023-05-15T17:52:06.557Z,22.93
2023-05-15T17:54:34.633Z,26.03
2023-05-15T17:57:02.434Z,33.93
2023-05-15T17:59:31.248Z,23.70
2023-05-15T18:02:00.433Z,22.50
2023-05-15T18:04:29.691Z,24.47
2023-05-15T18:06:57.842Z,29.47
2023-05-15T18:09:26.850Z,27.63
2023-05-15T18:11:54.763Z,23.30
2023-05-15T18:14:22.592Z,24.73
2023-05-15T18:16:51.792Z,23.27
2023-05-15T18:19:19.680Z,25.90
2023-05-15T18:21:48.776Z,26.47
2023-05-15T18:24:16.765Z,27.53
2023-05-15T18:26:47.475Z,25.70
2023-05-15T18:29:15.094Z,26.23
2023-05-15T18:31:44.447Z,26.47
2023-05-15T18:34:12.485Z,26.63
2023-05-15T18:36:40.451Z,27.43
2023-05-15T18:39:09.537Z,28.07
2023-05-15T18:41:38.076Z,27.13
2023-05-15T18:44:06.115Z,26.87
2023-05-15T18:46:34.117Z,26.00
2023-05-15T18:49:02.076Z,24.30
2023-05-15T18:51:29.788Z,27.57
2023-05-15T18:53:57.801Z,27.07
2023-05-15T18:56:26.863Z,26.10
2023-05-15T18:58:55.180Z,27.43
2023-05-15T19:01:23.387Z,28.53
2023-05-15T19:03:52.068Z,28.37
2023-05-15T19:06:20.353Z,28.97
2023-05-15T19:08:49.791Z,27.33
2023-05-15T19:11:18.169Z,26.10
2023-05-15T19:13:47.888Z,27.27
2023-05-15T19:16:15.680Z,28.60
2023-05-15T19:18:43.548Z,31.67
2023-05-15T19:21:11.592Z,27.90
2023-05-15T19:23:39.638Z,28.30
2023-05-15T19:26:07.420Z,29.33
2023-05-15T19:28:35.650Z,33.00
2023-05-15T19:31:05.370Z,31.77
2023-05-15T19:33:33.825Z,34.40
2023-05-15T19:36:01.884Z,33.10
2023-05-15T19:38:30.502Z,31.97
2023-05-15T19:40:58.309Z,30.17
2023-05-15T19:43:27.647Z,31.37
2023-05-15T19:45:55.742Z,30.07
2023-05-15T19:48:25.246Z,30.33
2023-05-15T19:50:53.269Z,29.20
2023-05-15T19:53:21.697Z,30.50
2023-05-15T19:55:50.123Z,29.67
2023-05-15T19:58:19.156Z,32.13
2023-05-15T20:00:50.375Z,32.40
2023-05-15T20:03:18.187Z,30.50
2023-05-15T20:05:47.745Z,43.90
2023-05-15T20:11:05.904Z,31.70
2023-05-15T20:13:34.370Z,30.10
2023-05-15T20:16:04.435Z,30.80
2023-05-15T20:18:34.588Z,30.23
2023-05-15T20:21:04.502Z,31.87
2023-05-15T20:23:32.348Z,32.30
2023-05-15T20:26:00.421Z,32.47
2023-05-15T20:28:28.983Z,30.90
2023-05-15T20:30:57.650Z,30.90
2023-05-15T20:33:25.495Z,34.17
2023-05-15T20:35:54.290Z,31.90
2023-05-15T20:38:25.309Z,37.47
2023-05-15T20:40:53.666Z,31.03
2023-05-15T20:43:21.553Z,31.13
2023-05-15T20:45:49.422Z,31.20
2023-05-15T20:48:17.434Z,35.00
2023-05-15T20:50:45.487Z,31.87
2023-05-15T20:53:13.517Z,32.07
2023-05-15T20:55:42.878Z,33.67
2023-05-15T20:58:12.238Z,31.67
2023-05-15T21:00:40.532Z,35.07
2023-05-15T21:03:09.356Z,33.33
2023-05-15T21:05:37.472Z,31.90
2023-05-15T21:08:05.644Z,33.20
2023-05-15T21:10:33.949Z,32.70
2023-05-15T21:13:03.712Z,33.27
2023-05-15T21:15:31.856Z,41.17
2023-05-15T21:17:59.795Z,33.17
2023-05-15T21:20:28.200Z,33.67
2023-05-15T21:22:56.208Z,32.67
2023-05-15T21:25:24.049Z,33.90
2023-05-15T21:27:51.746Z,33.93
2023-05-15T21:30:21.362Z,32.57
2023-05-15T21:32:49.312Z,32.00
2023-05-15T21:35:17.487Z,31.70
2023-05-15T21:37:45.593Z,36.70
2023-05-15T21:40:14.418Z,34.60
2023-05-15T21:42:43.052Z,34.50
2023-05-15T21:45:11.444Z,33.77
2023-05-15T21:47:40.850Z,36.40
2023-05-15T21:50:09.671Z,33.73
2023-05-15T21:52:37.688Z,34.57
2023-05-15T21:55:05.709Z,32.77
2023-05-15T21:57:33.960Z,32.20
2023-05-15T22:00:01.679Z,35.03
2023-05-15T22:02:29.818Z,36.63
2023-05-15T22:04:59.230Z,33.10
2023-05-15T22:07:27.063Z,30.83
2023-05-15T22:09:54.761Z,34.20
2023-05-15T22:12:22.752Z,32.20
2023-05-15T22:14:59.060Z,32.43
2023-05-15T22:17:30.655Z,34.10
2023-05-15T22:20:07.214Z,32.90
2023-05-15T22:22:36.129Z,35.70
2023-05-15T22:25:03.847Z,34.13
2023-05-15T22:27:31.796Z,34.90
2023-05-15T22:30:00.033Z,34.53
2023-05-15T22:32:27.827Z,33.33
2023-05-15T22:34:55.887Z,34.90
2023-05-15T22:37:25.318Z,33.60
2023-05-15T22:39:53.252Z,33.40
2023-05-15T22:42:21.257Z,33.67
2023-05-15T22:44:49.616Z,34.10
2023-05-15T22:47:17.429Z,34.47
2023-05-15T22:49:45.413Z,34.87
2023-05-15T22:52:14.082Z,36.00
2023-05-15T22:54:43.414Z,36.07
2023-05-15T22:57:11.302Z,35.33
2023-05-15T22:59:39.622Z,36.13
2023-05-15T23:02:07.495Z,36.50
2023-05-15T23:04:35.323Z,35.17
2023-05-15T23:07:03.302Z,49.03
2023-05-15T23:09:31.004Z,36.37
2023-05-15T23:12:00.579Z,39.80
2023-05-15T23:14:28.548Z,37.03
2023-05-15T23:16:56.277Z,38.33
2023-05-15T23:19:24.059Z,39.27
2023-05-15T23:21:52.218Z,38.90
2023-05-15T23:24:20.314Z,38.70
2023-05-15T23:26:48.006Z,38.63
2023-05-15T23:29:17.029Z,37.50
2023-05-15T23:31:44.903Z,36.20
2023-05-15T23:34:12.809Z,41.33
2023-05-15T23:36:41.321Z,40.60
2023-05-15T23:39:09.079Z,41.27
2023-05-15T23:41:37.667Z,37.20
2023-05-15T23:44:05.946Z,38.57
2023-05-15T23:46:35.439Z,42.17
2023-05-15T23:49:03.517Z,40.60
2023-05-15T23:51:32.374Z,38.27
2023-05-15T23:54:00.132Z,44.50
2023-05-15T23:56:27.821Z,39.60
2023-05-15T23:58:55.572Z,40.77
